createdAt,value
2023-05-03T00:01:44.851Z,98893.00
2023-05-03T00:04:16.060Z,98887.97
2023-05-03T00:06:45.032Z,98900.72
2023-05-03T00:09:15.176Z,98903.28
2023-05-03T00:11:44.065Z,98915.31
2023-05-03T00:14:12.472Z,98909.38
2023-05-03T00:16:40.721Z,98911.13
2023-05-03T00:19:15.059Z,98911.97
2023-05-03T00:21:52.950Z,98896.66
2023-05-03T00:24:22.908Z,98903.50
2023-05-03T00:26:51.661Z,98903.50
2023-05-03T00:29:21.274Z,98901.00
2023-05-03T00:31:49.836Z,98900.16
2023-05-03T00:34:17.854Z,98895.03
2023-05-03T00:36:46.314Z,98896.78
2023-05-03T00:39:16.853Z,98891.69
2023-05-03T00:41:46.676Z,98889.97
2023-05-03T00:44:14.966Z,98891.69
2023-05-03T00:46:43.198Z,98890.00
2023-05-03T00:49:11.482Z,98890.00
2023-05-03T00:51:39.808Z,98886.59
2023-05-03T00:54:08.498Z,98885.75
2023-05-03T00:56:47.829Z,98881.47
2023-05-03T00:59:21.569Z,98876.38
2023-05-03T01:01:51.176Z,98876.41
2023-05-03T01:04:20.945Z,98880.66
2023-05-03T01:07:00.659Z,98877.22
2023-05-03T01:09:36.820Z,98887.50
2023-05-03T01:12:18.649Z,98878.13
2023-05-03T01:15:00.269Z,98881.53
2023-05-03T01:17:30.696Z,98886.66
2023-05-03T01:20:08.511Z,98886.66
2023-05-03T01:22:45.622Z,98878.97
2023-05-03T01:25:17.002Z,98880.66
2023-05-03T01:27:45.836Z,98869.59
2023-05-03T01:30:15.139Z,98858.50
2023-05-03T01:32:52.588Z,98867.88
2023-05-03T01:35:29.325Z,98869.56
2023-05-03T01:37:59.454Z,98869.59
2023-05-03T01:40:31.208Z,98860.22
2023-05-03T01:43:01.099Z,98859.38
2023-05-03T01:45:29.732Z,98868.75
2023-05-03T01:47:58.876Z,98857.69
2023-05-03T01:50:27.735Z,98866.19
2023-05-03T01:52:56.008Z,98856.81
2023-05-03T01:55:24.245Z,98874.72
2023-05-03T01:57:54.172Z,98868.78
2023-05-03T02:00:23.052Z,98870.47
2023-05-03T02:02:51.437Z,98875.59
2023-05-03T02:05:20.055Z,98866.22
2023-05-03T02:07:49.109Z,98869.63
2023-05-03T02:10:17.519Z,98875.59
2023-05-03T02:12:46.611Z,98867.06
2023-05-03T02:15:16.951Z,98878.16
2023-05-03T02:17:45.874Z,98877.31
2023-05-03T02:20:14.729Z,98876.47
2023-05-03T02:22:43.827Z,98890.94
2023-05-03T02:25:12.036Z,98890.94
2023-05-03T02:27:41.050Z,98885.84
2023-05-03T02:30:10.934Z,98899.47
2023-05-03T02:32:40.720Z,98888.38
2023-05-03T02:35:09.991Z,98895.19
2023-05-03T02:37:38.676Z,98891.78
2023-05-03T02:40:08.917Z,98887.50
2023-05-03T02:42:37.581Z,98884.06
2023-05-03T02:45:06.854Z,98886.66
2023-05-03T02:47:35.180Z,98883.19
2023-05-03T02:50:06.649Z,98876.34
2023-05-03T02:52:35.001Z,98881.44
2023-05-03T02:55:03.821Z,98888.25
2023-05-03T02:57:32.378Z,98887.41
2023-05-03T03:00:01.020Z,98889.97
2023-05-03T03:02:29.594Z,98895.88
2023-05-03T03:04:58.111Z,98889.97
2023-05-03T03:07:28.478Z,98894.19
2023-05-03T03:09:57.362Z,98886.47
2023-05-03T03:12:26.775Z,98896.72
2023-05-03T03:14:55.257Z,98894.16
2023-05-03T03:17:23.723Z,98894.16
2023-05-03T03:19:52.031Z,98890.72
2023-05-03T03:22:20.318Z,98881.28
2023-05-03T03:24:50.918Z,98887.25
2023-05-03T03:27:21.705Z,98892.38
2023-05-03T03:29:50.368Z,98877.84
2023-05-03T03:32:18.890Z,98888.09
2023-05-03T03:34:47.783Z,98890.63
2023-05-03T03:37:16.144Z,98887.16
2023-05-03T03:39:44.915Z,98899.09
2023-05-03T03:42:18.977Z,98875.22
2023-05-03T03:44:47.428Z,98895.75
2023-05-03T03:47:15.630Z,98886.31
2023-05-03T03:49:44.333Z,98900.81
2023-05-03T03:52:14.240Z,98906.78
2023-05-03T03:54:42.955Z,98908.47
2023-05-03T03:57:11.062Z,98913.56
2023-05-03T03:59:44.715Z,98918.66
2023-05-03T04:02:14.427Z,98914.44
2023-05-03T04:04:42.763Z,98916.16
2023-05-03T04:07:12.207Z,98899.94
2023-05-03T04:09:40.469Z,98920.41
2023-05-03T04:12:09.270Z,98911.00
2023-05-03T04:14:38.167Z,98924.63
2023-05-03T04:17:08.616Z,98924.63
2023-05-03T04:19:38.723Z,98931.50
2023-05-03T04:22:07.558Z,98915.31
2023-05-03T04:24:36.399Z,98929.00
2023-05-03T04:27:04.987Z,98937.53
2023-05-03T04:29:35.232Z,98928.97
2023-05-03T04:32:04.498Z,98931.53
2023-05-03T04:34:34.641Z,98945.19
2023-05-03T04:37:03.028Z,98946.91
2023-05-03T04:39:31.380Z,98941.84
2023-05-03T04:42:02.578Z,98938.44
2023-05-03T04:44:31.148Z,98958.06
2023-05-03T04:47:00.206Z,98958.06
2023-05-03T04:49:28.834Z,98961.50
2023-05-03T04:51:59.331Z,98969.22
2023-05-03T04:54:27.954Z,98967.53
2023-05-03T04:56:57.200Z,98944.50
2023-05-03T04:59:25.935Z,98969.25
2023-05-03T05:01:54.733Z,98963.25
2023-05-03T05:04:23.441Z,98967.56
2023-05-03T05:06:53.379Z,98978.66
2023-05-03T05:09:27.872Z,98966.72
2023-05-03T05:11:57.339Z,98984.56
2023-05-03T05:14:28.055Z,98980.31
2023-05-03T05:16:56.918Z,98986.25
2023-05-03T05:19:25.512Z,98986.28
2023-05-03T05:21:54.939Z,98969.25
2023-05-03T05:24:23.722Z,98979.50
2023-05-03T05:26:54.557Z,98972.72
2023-05-03T05:29:23.150Z,98977.03
2023-05-03T05:31:52.406Z,98973.63
2023-05-03T05:34:22.174Z,98981.34
2023-05-03T05:36:53.169Z,98974.50
2023-05-03T05:39:23.538Z,98977.94
2023-05-03T05:41:54.285Z,98982.22
2023-05-03T05:44:23.305Z,98980.50
2023-05-03T05:46:52.177Z,98970.25
2023-05-03T05:49:21.499Z,98990.75
2023-05-03T05:51:50.403Z,98989.03
2023-05-03T05:54:18.785Z,98988.19
2023-05-03T05:56:47.743Z,98989.06
2023-05-03T05:59:18.240Z,98982.22
2023-05-03T06:01:47.314Z,98984.81
2023-05-03T06:04:16.292Z,98970.28
2023-05-03T06:06:45.223Z,98983.97
2023-05-03T06:09:24.117Z,98993.34
2023-05-03T06:11:53.513Z,98983.09
2023-05-03T06:14:23.265Z,98980.56
2023-05-03T06:16:55.051Z,98981.41
2023-05-03T06:19:24.778Z,98978.00
2023-05-03T06:21:53.742Z,98996.75
2023-05-03T06:24:22.417Z,98999.31
2023-05-03T06:26:50.697Z,98982.19
2023-05-03T06:29:19.159Z,98983.03
2023-05-03T06:31:49.860Z,98983.91
2023-05-03T06:34:22.095Z,98980.44
2023-05-03T06:36:51.895Z,98992.41
2023-05-03T06:39:20.604Z,98984.72
2023-05-03T06:41:49.433Z,98988.13
2023-05-03T06:44:18.336Z,98987.28
2023-05-03T06:46:46.927Z,98988.16
2023-05-03T06:49:17.248Z,98984.75
2023-05-03T06:51:46.365Z,98967.66
2023-05-03T06:54:16.021Z,98974.38
2023-05-03T06:56:44.752Z,98982.88
2023-05-03T06:59:13.002Z,98970.06
2023-05-03T07:01:41.751Z,98986.19
2023-05-03T07:04:10.275Z,98973.25
2023-05-03T07:06:52.480Z,98976.63
2023-05-03T07:09:35.782Z,98957.78
2023-05-03T07:12:11.062Z,98968.00
2023-05-03T07:14:40.195Z,98958.47
2023-05-03T07:17:10.255Z,98951.66
2023-05-03T07:19:38.722Z,98947.03
2023-05-03T07:22:08.803Z,98944.94
2023-05-03T07:24:38.164Z,98940.38
2023-05-03T07:27:07.295Z,98937.88
2023-05-03T07:29:36.180Z,98921.06
2023-05-03T07:32:05.324Z,98936.28
2023-05-03T07:34:34.322Z,98935.31
2023-05-03T07:37:02.736Z,98929.25
2023-05-03T07:39:33.389Z,98930.16
2023-05-03T07:42:02.430Z,98929.66
2023-05-03T07:44:31.841Z,98916.81
2023-05-03T07:47:01.058Z,98930.59
2023-05-03T07:49:29.975Z,98915.28
2023-05-03T07:52:03.113Z,98917.78
2023-05-03T07:54:35.319Z,98899.78
2023-05-03T07:57:04.160Z,98910.78
2023-05-03T07:59:32.796Z,98907.50
2023-05-03T08:02:01.977Z,98914.13
2023-05-03T08:04:30.900Z,98908.81
2023-05-03T08:07:02.722Z,98902.41
2023-05-03T08:09:32.711Z,98905.81
2023-05-03T08:12:02.865Z,98902.38
2023-05-03T08:14:31.267Z,98893.72
2023-05-03T08:17:00.395Z,98906.69
2023-05-03T08:19:29.412Z,98903.97
2023-05-03T08:21:58.868Z,98914.78
2023-05-03T08:24:28.234Z,98913.94
2023-05-03T08:26:59.270Z,98894.19
2023-05-03T08:29:28.491Z,98903.00
2023-05-03T08:31:58.241Z,98910.34
2023-05-03T08:34:30.433Z,98907.16
2023-05-03T08:36:59.763Z,98901.81
2023-05-03T08:39:28.339Z,98907.06
2023-05-03T08:41:58.665Z,98913.44
2023-05-03T08:44:32.142Z,98912.25
2023-05-03T08:47:01.802Z,98897.34
2023-05-03T08:49:32.537Z,98895.19
2023-05-03T08:52:02.524Z,98898.13
2023-05-03T08:54:31.309Z,98880.94
2023-05-03T08:57:02.029Z,98895.44
2023-05-03T08:59:32.331Z,98897.84
2023-05-03T09:02:00.919Z,98905.34
2023-05-03T09:04:35.337Z,98898.56
2023-05-03T09:07:10.595Z,98907.81
2023-05-03T09:09:40.217Z,98913.56
2023-05-03T09:12:11.468Z,98910.06
2023-05-03T09:14:48.059Z,98901.81
2023-05-03T09:17:18.318Z,98899.19
2023-05-03T09:19:54.713Z,98894.84
2023-05-03T09:22:27.409Z,98906.28
2023-05-03T09:24:58.189Z,98889.50
2023-05-03T09:27:29.674Z,98888.25
2023-05-03T09:29:58.279Z,98901.09
2023-05-03T09:32:31.138Z,98897.19
2023-05-03T09:35:11.611Z,98893.53
2023-05-03T09:37:40.300Z,98890.81
2023-05-03T09:40:11.902Z,98883.84
2023-05-03T09:43:05.045Z,98876.09
2023-05-03T09:45:34.659Z,98885.50
2023-05-03T09:48:06.214Z,98886.97
2023-05-03T09:50:36.050Z,98883.56
2023-05-03T09:53:07.640Z,98888.44
2023-05-03T09:55:38.283Z,98878.84
2023-05-03T09:58:09.868Z,98880.16
2023-05-03T10:00:40.722Z,98872.31
2023-05-03T10:03:12.046Z,98874.28
2023-05-03T10:05:47.665Z,98872.69
2023-05-03T10:08:24.886Z,98875.06
2023-05-03T10:10:54.530Z,98877.22
2023-05-03T10:13:25.987Z,98870.53
2023-05-03T10:16:01.215Z,98863.16
2023-05-03T10:18:34.083Z,98870.34
2023-05-03T10:21:06.391Z,98854.16
2023-05-03T10:23:34.978Z,98853.47
2023-05-03T10:26:17.299Z,98859.47
2023-05-03T10:28:48.299Z,98825.97
2023-05-03T10:31:46.521Z,98855.34
2023-05-03T10:34:34.392Z,98840.47
2023-05-03T10:37:04.617Z,98842.53
2023-05-03T10:39:33.535Z,98841.88
2023-05-03T10:42:05.064Z,98846.13
2023-05-03T10:44:42.973Z,98837.09
2023-05-03T10:47:14.734Z,98831.22
2023-05-03T10:49:46.443Z,98837.75
2023-05-03T10:52:47.821Z,98836.78
2023-05-03T10:55:18.440Z,98831.56
2023-05-03T10:57:48.667Z,98819.03
2023-05-03T11:00:26.001Z,98843.97
2023-05-03T11:03:14.285Z,98821.75
2023-05-03T11:05:43.341Z,98825.59
2023-05-03T11:08:14.039Z,98820.63
2023-05-03T11:10:43.578Z,98826.69
2023-05-03T11:13:12.893Z,98824.66
2023-05-03T11:15:44.839Z,98824.31
2023-05-03T11:18:16.938Z,98827.72
2023-05-03T11:20:46.069Z,98820.91
2023-05-03T11:23:15.529Z,98821.06
2023-05-03T11:25:44.476Z,98814.31
2023-05-03T11:28:13.930Z,98804.66
2023-05-03T11:30:43.975Z,98801.66
2023-05-03T11:33:14.428Z,98815.38
2023-05-03T11:35:43.779Z,98804.00
2023-05-03T11:38:12.599Z,98794.28
2023-05-03T11:40:41.917Z,98801.63
2023-05-03T11:43:10.316Z,98800.72
2023-05-03T11:45:44.878Z,98801.84
2023-05-03T11:48:15.911Z,98809.19
2023-05-03T11:50:49.145Z,98807.69
2023-05-03T11:53:18.533Z,98797.00
2023-05-03T11:55:49.477Z,98789.97
2023-05-03T11:58:22.266Z,98795.84
2023-05-03T12:00:52.202Z,98803.25
2023-05-03T12:03:27.737Z,98795.22
2023-05-03T12:06:01.873Z,98782.81
2023-05-03T12:08:36.396Z,98793.94
2023-05-03T12:11:09.865Z,98789.00
2023-05-03T12:13:40.675Z,98781.66
2023-05-03T12:16:14.378Z,98794.28
2023-05-03T12:18:50.296Z,98786.38
2023-05-03T12:23:56.000Z,98778.91
2023-05-03T12:26:26.176Z,98775.06
2023-05-03T12:28:56.851Z,98788.91
2023-05-03T12:31:29.121Z,98777.44
2023-05-03T12:36:37.165Z,98775.47
2023-05-03T12:39:10.141Z,98777.47
2023-05-03T12:42:06.395Z,98765.13
2023-05-03T12:44:29.348Z,98769.41
2023-05-03T12:47:01.117Z,98762.94
2023-05-03T12:49:31.961Z,98773.59
2023-05-03T12:52:33.028Z,98760.47
2023-05-03T12:54:55.240Z,98756.53
2023-05-03T12:57:26.847Z,98756.19
2023-05-03T13:00:03.062Z,98755.84
2023-05-03T13:05:13.110Z,98762.69
2023-05-03T13:07:56.133Z,98747.88
2023-05-03T13:10:27.602Z,98739.53
2023-05-03T13:12:57.265Z,98730.94
2023-05-03T13:15:27.593Z,98731.44
2023-05-03T13:17:57.600Z,98723.59
2023-05-03T13:20:29.497Z,98724.56
2023-05-03T13:22:59.129Z,98712.00
2023-05-03T13:25:29.652Z,98711.59
2023-05-03T13:27:58.445Z,98710.47
2023-05-03T13:30:27.899Z,98725.13
2023-05-03T13:32:57.070Z,98719.88
2023-05-03T13:35:28.082Z,98712.97
2023-05-03T13:37:57.119Z,98704.34
2023-05-03T13:40:26.313Z,98701.91
2023-05-03T13:42:55.823Z,98696.66
2023-05-03T13:45:26.146Z,98698.69
2023-05-03T13:48:11.831Z,98702.06
2023-05-03T13:50:46.986Z,98692.06
2023-05-03T13:53:16.771Z,98692.16
2023-05-03T13:55:45.940Z,98693.88
2023-05-03T13:58:15.150Z,98684.66
2023-05-03T14:00:44.087Z,98692.75
2023-05-03T14:03:13.297Z,98688.94
2023-05-03T14:05:44.063Z,98687.44
2023-05-03T14:08:15.672Z,98679.69
2023-05-03T14:10:45.354Z,98674.81
2023-05-03T14:13:14.635Z,98682.25
2023-05-03T14:15:44.268Z,98685.81
2023-05-03T14:18:13.353Z,98673.56
2023-05-03T14:20:42.556Z,98675.88
2023-05-03T14:23:11.837Z,98669.75
2023-05-03T14:25:43.105Z,98688.03
2023-05-03T14:28:11.920Z,98681.06
2023-05-03T14:30:40.761Z,98680.44
2023-05-03T14:33:10.307Z,98669.97
2023-05-03T14:35:38.861Z,98673.13
2023-05-03T14:38:07.870Z,98674.44
2023-05-03T14:40:36.387Z,98666.00
2023-05-03T14:43:08.233Z,98676.72
2023-05-03T14:45:37.876Z,98670.69
2023-05-03T14:48:07.964Z,98666.31
2023-05-03T14:50:36.680Z,98656.75
2023-05-03T14:53:05.381Z,98657.31
2023-05-03T14:55:33.816Z,98662.31
2023-05-03T14:58:02.662Z,98658.47
2023-05-03T15:00:33.232Z,98653.50
2023-05-03T15:03:01.871Z,98664.97
2023-05-03T15:05:31.860Z,98655.00
2023-05-03T15:08:01.116Z,98652.28
2023-05-03T15:10:29.372Z,98650.69
2023-05-03T15:12:58.315Z,98655.00
2023-05-03T15:15:27.162Z,98661.81
2023-05-03T15:17:58.616Z,98666.59
2023-05-03T15:20:27.622Z,98657.50
2023-05-03T15:22:56.674Z,98656.31
2023-05-03T15:25:25.335Z,98660.69
2023-05-03T15:27:54.008Z,98651.38
2023-05-03T15:30:22.562Z,98650.16
2023-05-03T15:32:52.122Z,98636.88
2023-05-03T15:35:22.991Z,98655.75
2023-05-03T15:37:51.764Z,98649.28
2023-05-03T15:40:23.777Z,98633.59
2023-05-03T15:42:53.264Z,98641.69
2023-05-03T15:45:23.444Z,98654.78
2023-05-03T15:47:52.883Z,98640.63
2023-05-03T15:50:22.735Z,98639.03
2023-05-03T15:52:51.340Z,98634.22
2023-05-03T15:55:20.473Z,98636.97
2023-05-03T15:57:49.969Z,98635.44
2023-05-03T16:00:20.440Z,98639.47
2023-05-03T16:02:51.689Z,98633.69
2023-05-03T16:05:20.802Z,98627.13
2023-05-03T16:07:51.571Z,98621.41
2023-05-03T16:10:23.426Z,98625.59
2023-05-03T16:12:53.085Z,98631.84
2023-05-03T16:15:21.848Z,98632.75
2023-05-03T16:17:50.227Z,98621.19
2023-05-03T16:20:19.213Z,98615.69
2023-05-03T16:22:49.256Z,98607.03
2023-05-03T16:25:20.911Z,98615.13
2023-05-03T16:27:49.975Z,98604.41
2023-05-03T16:30:19.836Z,98603.44
2023-05-03T16:32:50.116Z,98610.22
2023-05-03T16:35:19.201Z,98599.84
2023-05-03T16:37:50.669Z,98599.91
2023-05-03T16:40:22.179Z,98596.38
2023-05-03T16:42:53.009Z,98600.84
2023-05-03T16:45:22.680Z,98600.59
2023-05-03T16:47:53.125Z,98606.13
2023-05-03T16:50:22.149Z,98605.03
2023-05-03T16:52:52.213Z,98600.88
2023-05-03T16:55:26.583Z,98611.66
2023-05-03T16:57:55.725Z,98612.72
2023-05-03T17:00:24.767Z,98596.13
2023-05-03T17:02:54.900Z,98605.84
2023-05-03T17:05:26.926Z,98604.44
2023-05-03T17:07:55.369Z,98603.69
2023-05-03T17:10:27.230Z,98608.69
2023-05-03T17:12:57.380Z,98592.59
2023-05-03T17:15:26.570Z,98606.03
2023-05-03T17:17:55.981Z,98599.56
2023-05-03T17:20:25.787Z,98610.09
2023-05-03T17:22:58.044Z,98596.44
2023-05-03T17:25:28.749Z,98617.78
2023-05-03T17:27:57.509Z,98607.41
2023-05-03T17:30:26.869Z,98607.03
2023-05-03T17:32:56.809Z,98610.47
2023-05-03T17:35:26.447Z,98597.56
2023-05-03T17:37:55.734Z,98603.97
2023-05-03T17:40:27.059Z,98603.41
2023-05-03T17:42:57.991Z,98608.09
2023-05-03T17:45:28.192Z,98607.03
2023-05-03T17:47:59.245Z,98612.22
2023-05-03T17:50:28.203Z,98603.84
2023-05-03T17:52:58.640Z,98616.00
2023-05-03T17:55:29.125Z,98608.00
2023-05-03T17:58:00.632Z,98598.78
2023-05-03T18:00:29.870Z,98611.88
2023-05-03T18:02:59.285Z,98607.38
2023-05-03T18:05:28.141Z,98604.25
2023-05-03T18:07:57.004Z,98622.09
2023-05-03T18:10:26.192Z,98622.66
2023-05-03T18:12:56.066Z,98612.28
2023-05-03T18:15:26.638Z,98605.56
2023-05-03T18:17:57.101Z,98616.56
2023-05-03T18:20:25.962Z,98629.75
2023-05-03T18:22:54.812Z,98614.00
2023-05-03T18:25:23.952Z,98620.63
2023-05-03T18:27:54.589Z,98623.19
2023-05-03T18:30:23.575Z,98624.31
2023-05-03T18:32:54.797Z,98627.00
2023-05-03T18:35:24.246Z,98633.75
2023-05-03T18:37:53.651Z,98628.91
2023-05-03T18:40:22.872Z,98637.13
2023-05-03T18:42:51.950Z,98634.22
2023-05-03T18:45:22.319Z,98633.50
2023-05-03T18:47:53.321Z,98637.03
2023-05-03T18:50:22.047Z,98642.06
2023-05-03T18:52:51.600Z,98639.22
2023-05-03T18:55:21.064Z,98643.97
2023-05-03T18:57:50.200Z,98653.78
2023-05-03T19:00:20.109Z,98640.50
2023-05-03T19:02:49.408Z,98650.75
2023-05-03T19:05:20.273Z,98649.19
2023-05-03T19:07:50.245Z,98640.97
2023-05-03T19:10:19.996Z,98641.25
2023-05-03T19:12:51.398Z,98648.00
2023-05-03T19:15:21.268Z,98639.59
2023-05-03T19:17:51.213Z,98660.31
2023-05-03T19:20:21.877Z,98665.75
2023-05-03T19:22:50.846Z,98661.88
2023-05-03T19:25:21.539Z,98660.75
2023-05-03T19:27:51.704Z,98667.91
2023-05-03T19:30:21.379Z,98673.25
2023-05-03T19:32:50.960Z,98671.91
2023-05-03T19:35:21.633Z,98677.84
2023-05-03T19:37:50.594Z,98666.97
2023-05-03T19:40:19.360Z,98676.31
2023-05-03T19:42:48.435Z,98670.16
2023-05-03T19:45:17.405Z,98662.50
2023-05-03T19:47:46.556Z,98671.38
2023-05-03T19:50:15.890Z,98667.47
2023-05-03T19:52:46.330Z,98686.59
2023-05-03T19:55:15.781Z,98677.06
2023-05-03T19:57:44.587Z,98669.38
2023-05-03T20:00:16.116Z,98676.09
2023-05-03T20:02:44.739Z,98659.88
2023-05-03T20:05:14.404Z,98663.47
2023-05-03T20:07:43.543Z,98687.41
2023-05-03T20:10:14.425Z,98687.19
2023-05-03T20:12:43.507Z,98681.72
2023-05-03T20:15:13.979Z,98689.53
2023-05-03T20:17:43.227Z,98687.06
2023-05-03T20:20:12.774Z,98690.75
2023-05-03T20:22:41.592Z,98695.00
2023-05-03T20:25:11.165Z,98678.03
2023-05-03T20:27:42.541Z,98689.25
2023-05-03T20:30:11.670Z,98690.44
2023-05-03T20:32:41.150Z,98692.97
2023-05-03T20:35:12.282Z,98695.53
2023-05-03T20:37:41.563Z,98696.44
2023-05-03T20:40:12.656Z,98690.56
2023-05-03T20:42:45.106Z,98704.91
2023-05-03T20:45:14.439Z,98698.97
2023-05-03T20:47:42.840Z,98702.47
2023-05-03T20:50:12.425Z,98705.22
2023-05-03T20:52:41.320Z,98686.59
2023-05-03T20:55:10.509Z,98699.16
2023-05-03T20:57:45.362Z,98704.63
2023-05-03T21:00:16.712Z,98710.50
2023-05-03T21:02:46.819Z,98697.06
2023-05-03T21:05:15.325Z,98705.28
2023-05-03T21:07:43.970Z,98695.16
2023-05-03T21:10:12.530Z,98690.56
2023-05-03T21:12:43.044Z,98697.44
2023-05-03T21:15:12.607Z,98699.00
2023-05-03T21:17:41.060Z,98701.53
2023-05-03T21:20:11.401Z,98707.75
2023-05-03T21:22:39.668Z,98702.78
2023-05-03T21:25:09.372Z,98710.78
2023-05-03T21:27:38.015Z,98698.97
2023-05-03T21:30:09.578Z,98693.66
2023-05-03T21:32:38.293Z,98698.13
2023-05-03T21:35:08.162Z,98708.56
2023-05-03T21:37:37.266Z,98698.91
2023-05-03T21:40:07.540Z,98702.53
2023-05-03T21:42:35.953Z,98696.53
2023-05-03T21:45:04.696Z,98688.16
2023-05-03T21:47:35.020Z,98702.81
2023-05-03T21:50:06.573Z,98696.88
2023-05-03T21:52:35.440Z,98701.44
2023-05-03T21:55:04.185Z,98692.91
2023-05-03T21:57:33.329Z,98694.00
2023-05-03T22:00:02.048Z,98691.66
2023-05-03T22:02:34.353Z,98693.50
2023-05-03T22:05:04.673Z,98690.19
2023-05-03T22:07:33.921Z,98697.00
2023-05-03T22:10:03.208Z,98690.38
2023-05-03T22:12:32.058Z,98704.06
2023-05-03T22:15:00.689Z,98687.97
2023-05-03T22:17:29.223Z,98694.06
2023-05-03T22:19:58.228Z,98696.78
2023-05-03T22:22:28.635Z,98696.81
2023-05-03T22:24:57.515Z,98692.59
2023-05-03T22:27:26.194Z,98694.28
2023-05-03T22:29:55.008Z,98656.97
2023-05-03T22:32:23.565Z,98691.13
2023-05-03T22:34:52.058Z,98682.75
2023-05-03T22:37:22.803Z,98667.31
2023-05-03T22:39:53.077Z,98683.47
2023-05-03T22:42:21.316Z,98687.06
2023-05-03T22:44:50.464Z,98682.88
2023-05-03T22:47:18.924Z,98685.56
2023-05-03T22:49:47.688Z,98679.69
2023-05-03T22:52:16.009Z,98690.00
2023-05-03T22:54:44.653Z,98678.94
2023-05-03T22:57:14.516Z,98690.88
2023-05-03T22:59:47.488Z,98690.94
2023-05-03T23:02:17.816Z,98684.09
2023-05-03T23:04:46.198Z,98688.53
2023-05-03T23:07:14.746Z,98678.38
2023-05-03T23:09:43.383Z,98678.50
2023-05-03T23:12:11.944Z,98669.22
2023-05-03T23:14:44.014Z,98687.94
2023-05-03T23:17:12.810Z,98682.00
2023-05-03T23:19:41.212Z,98678.63
2023-05-03T23:22:09.693Z,98676.06
2023-05-03T23:24:38.874Z,98673.44
2023-05-03T23:27:08.298Z,98675.16
2023-05-03T23:29:37.439Z,98670.97
2023-05-03T23:32:08.928Z,98670.13
2023-05-03T23:34:37.968Z,98671.09
2023-05-03T23:37:06.237Z,98673.72
2023-05-03T23:39:37.038Z,98667.00
2023-05-03T23:42:06.562Z,98667.06
2023-05-03T23:44:50.381Z,98677.22
2023-05-03T23:47:24.287Z,98683.22
2023-05-03T23:49:52.734Z,98679.78
2023-05-03T23:52:22.010Z,98683.25
2023-05-03T23:54:50.962Z,98683.31
2023-05-03T23:57:19.194Z,98680.81
2023-05-03T23:59:47.463Z,98668.97
